sensor_id;sensor_type;location;lat;lon;timestamp;temperature;humidity
26503;DHT22;14177;51.520;6.764;2023-02-04T00:01:07;7.60;99.90
26503;DHT22;14177;51.520;6.764;2023-02-04T00:03:34;7.60;99.90
26503;DHT22;14177;51.520;6.764;2023-02-04T00:06:01;7.60;99.90
26503;DHT22;14177;51.520;6.764;2023-02-04T00:08:28;7.70;99.90
26503;DHT22;14177;51.520;6.764;2023-02-04T00:10:55;7.60;99.90
26503;DHT22;14177;51.520;6.764;2023-02-04T00:13:22;7.60;99.90
26503;DHT22;14177;51.520;6.764;2023-02-04T00:15:49;7.70;99.90
26503;DHT22;14177;51.520;6.764;2023-02-04T00:18:16;7.60;99.90
26503;DHT22;14177;51.520;6.764;2023-02-04T00:20:43;7.60;99.90
26503;DHT22;14177;51.520;6.764;2023-02-04T00:23:10;7.60;99.90
26503;DHT22;14177;51.520;6.764;2023-02-04T00:25:37;7.60;99.90
26503;DHT22;14177;51.520;6.764;2023-02-04T00:28:04;7.70;99.90
26503;DHT22;14177;51.520;6.764;2023-02-04T00:30:32;7.60;99.90
26503;DHT22;14177;51.520;6.764;2023-02-04T00:32:59;7.70;99.90
26503;DHT22;14177;51.520;6.764;2023-02-04T00:35:26;7.60;99.90
26503;DHT22;14177;51.520;6.764;2023-02-04T00:37:53;7.60;99.90
26503;DHT22;14177;51.520;6.764;2023-02-04T00:40:20;7.60;99.90
26503;DHT22;14177;51.520;6.764;2023-02-04T00:42:47;7.60;99.90
26503;DHT22;14177;51.520;6.764;2023-02-04T00:45:15;7.60;99.90
26503;DHT22;14177;51.520;6.764;2023-02-04T00:47:43;7.60;99.90
26503;DHT22;14177;51.520;6.764;2023-02-04T00:50:10;7.60;99.90
26503;DHT22;14177;51.520;6.764;2023-02-04T00:52:37;7.60;99.90
26503;DHT22;14177;51.520;6.764;2023-02-04T00:55:04;7.60;99.90
26503;DHT22;14177;51.520;6.764;2023-02-04T00:57:33;7.60;99.90
26503;DHT22;14177;51.520;6.764;2023-02-04T01:00:00;7.60;99.90
26503;DHT22;14177;51.520;6.764;2023-02-04T01:02:27;7.60;99.90
26503;DHT22;14177;51.520;6.764;2023-02-04T01:04:54;7.60;99.90
26503;DHT22;14177;51.520;6.764;2023-02-04T01:07:22;7.60;99.90
26503;DHT22;14177;51.520;6.764;2023-02-04T01:09:49;7.60;99.90
26503;DHT22;14177;51.520;6.764;2023-02-04T01:12:16;7.50;99.90
26503;DHT22;14177;51.520;6.764;2023-02-04T01:14:43;7.50;99.90
26503;DHT22;14177;51.520;6.764;2023-02-04T01:17:10;7.50;99.90
26503;DHT22;14177;51.520;6.764;2023-02-04T01:19:37;7.50;99.90
26503;DHT22;14177;51.520;6.764;2023-02-04T01:22:04;7.50;99.90
26503;DHT22;14177;51.520;6.764;2023-02-04T01:24:31;7.50;99.90
26503;DHT22;14177;51.520;6.764;2023-02-04T01:27:17;7.50;99.90
26503;DHT22;14177;51.520;6.764;2023-02-04T01:29:44;7.50;99.90
26503;DHT22;14177;51.520;6.764;2023-02-04T01:32:11;7.50;99.90
26503;DHT22;14177;51.520;6.764;2023-02-04T01:34:38;7.50;99.90
26503;DHT22;14177;51.520;6.764;2023-02-04T01:37:05;7.50;99.90
26503;DHT22;14177;51.520;6.764;2023-02-04T01:39:32;7.50;99.90
26503;DHT22;14177;51.520;6.764;2023-02-04T01:41:59;7.50;99.90
26503;DHT22;14177;51.520;6.764;2023-02-04T01:44:27;7.50;99.90
26503;DHT22;14177;51.520;6.764;2023-02-04T01:46:55;7.50;99.90
26503;DHT22;14177;51.520;6.764;2023-02-04T01:49:22;7.50;99.90
26503;DHT22;14177;51.520;6.764;2023-02-04T01:51:50;7.50;99.90
26503;DHT22;14177;51.520;6.764;2023-02-04T01:54:17;7.50;99.90
26503;DHT22;14177;51.520;6.764;2023-02-04T01:56:47;7.50;99.90
26503;DHT22;14177;51.520;6.764;2023-02-04T01:59:17;7.40;99.90
26503;DHT22;14177;51.520;6.764;2023-02-04T02:01:47;7.50;99.90
26503;DHT22;14177;51.520;6.764;2023-02-04T02:04:24;7.40;99.90
26503;DHT22;14177;51.520;6.764;2023-02-04T02:07:01;7.40;99.90
26503;DHT22;14177;51.520;6.764;2023-02-04T02:09:32;7.40;99.90
26503;DHT22;14177;51.520;6.764;2023-02-04T02:12:01;7.50;99.90
26503;DHT22;14177;51.520;6.764;2023-02-04T02:14:30;7.40;99.90
26503;DHT22;14177;51.520;6.764;2023-02-04T02:16:57;7.40;99.90
26503;DHT22;14177;51.520;6.764;2023-02-04T02:19:28;7.40;99.90
26503;DHT22;14177;51.520;6.764;2023-02-04T02:22:14;7.40;99.90
26503;DHT22;14177;51.520;6.764;2023-02-04T02:24:46;7.40;99.90
26503;DHT22;14177;51.520;6.764;2023-02-04T02:27:13;7.40;99.90
26503;DHT22;14177;51.520;6.764;2023-02-04T02:29:41;7.40;99.90
26503;DHT22;14177;51.520;6.764;2023-02-04T02:32:10;7.40;99.90
26503;DHT22;14177;51.520;6.764;2023-02-04T02:34:40;7.40;99.90
26503;DHT22;14177;51.520;6.764;2023-02-04T02:37:10;7.40;99.90
26503;DHT22;14177;51.520;6.764;2023-02-04T02:39:38;7.40;99.90
26503;DHT22;14177;51.520;6.764;2023-02-04T02:42:08;7.40;99.90
26503;DHT22;14177;51.520;6.764;2023-02-04T02:49:13;7.40;99.90
26503;DHT22;14177;51.520;6.764;2023-02-04T02:51:42;7.40;99.90
26503;DHT22;14177;51.520;6.764;2023-02-04T02:56:53;7.40;99.90
26503;DHT22;14177;51.520;6.764;2023-02-04T02:59:22;7.30;99.90
26503;DHT22;14177;51.520;6.764;2023-02-04T03:01:54;7.30;99.90
26503;DHT22;14177;51.520;6.764;2023-02-04T03:04:29;7.30;99.90
26503;DHT22;14177;51.520;6.764;2023-02-04T03:06:59;7.30;99.90
26503;DHT22;14177;51.520;6.764;2023-02-04T03:09:27;7.30;99.90
26503;DHT22;14177;51.520;6.764;2023-02-04T03:11:55;7.30;99.90
26503;DHT22;14177;51.520;6.764;2023-02-04T03:14:23;7.30;99.90
26503;DHT22;14177;51.520;6.764;2023-02-04T03:16:52;7.30;99.90
26503;DHT22;14177;51.520;6.764;2023-02-04T03:19:25;7.20;99.90
26503;DHT22;14177;51.520;6.764;2023-02-04T03:21:55;7.20;99.90
26503;DHT22;14177;51.520;6.764;2023-02-04T03:24:23;7.20;99.90
26503;DHT22;14177;51.520;6.764;2023-02-04T03:26:51;7.20;99.90
26503;DHT22;14177;51.520;6.764;2023-02-04T03:29:18;7.20;99.90
26503;DHT22;14177;51.520;6.764;2023-02-04T03:31:45;7.20;99.90
26503;DHT22;14177;51.520;6.764;2023-02-04T03:34:12;7.20;99.90
26503;DHT22;14177;51.520;6.764;2023-02-04T03:36:39;7.20;99.90
26503;DHT22;14177;51.520;6.764;2023-02-04T03:39:06;7.20;99.90
26503;DHT22;14177;51.520;6.764;2023-02-04T03:41:33;7.20;99.90
26503;DHT22;14177;51.520;6.764;2023-02-04T03:44:00;7.20;99.90
26503;DHT22;14177;51.520;6.764;2023-02-04T03:46:27;7.20;99.90
26503;DHT22;14177;51.520;6.764;2023-02-04T03:48:54;7.10;99.90
26503;DHT22;14177;51.520;6.764;2023-02-04T03:51:21;7.10;99.90
26503;DHT22;14177;51.520;6.764;2023-02-04T03:53:48;7.10;99.90
26503;DHT22;14177;51.520;6.764;2023-02-04T03:56:15;7.10;99.90
26503;DHT22;14177;51.520;6.764;2023-02-04T03:58:43;7.10;99.90
26503;DHT22;14177;51.520;6.764;2023-02-04T04:01:10;7.10;99.90
26503;DHT22;14177;51.520;6.764;2023-02-04T04:03:37;7.10;99.90
26503;DHT22;14177;51.520;6.764;2023-02-04T04:06:05;7.10;99.90
26503;DHT22;14177;51.520;6.764;2023-02-04T04:08:53;7.10;99.90
26503;DHT22;14177;51.520;6.764;2023-02-04T04:11:20;7.10;99.90
26503;DHT22;14177;51.520;6.764;2023-02-04T04:13:47;7.10;99.90
26503;DHT22;14177;51.520;6.764;2023-02-04T04:16:14;7.10;99.90
26503;DHT22;14177;51.520;6.764;2023-02-04T04:18:41;7.00;99.90
26503;DHT22;14177;51.520;6.764;2023-02-04T04:21:08;7.00;99.90
26503;DHT22;14177;51.520;6.764;2023-02-04T04:23:36;7.00;99.90
26503;DHT22;14177;51.520;6.764;2023-02-04T04:26:03;7.00;99.90
26503;DHT22;14177;51.520;6.764;2023-02-04T04:28:30;7.00;99.90
26503;DHT22;14177;51.520;6.764;2023-02-04T04:30:57;7.00;99.90
26503;DHT22;14177;51.520;6.764;2023-02-04T04:33:24;7.00;99.90
26503;DHT22;14177;51.520;6.764;2023-02-04T04:35:51;7.00;99.90
26503;DHT22;14177;51.520;6.764;2023-02-04T04:38:18;7.00;99.90
26503;DHT22;14177;51.520;6.764;2023-02-04T04:40:45;7.00;99.90
26503;DHT22;14177;51.520;6.764;2023-02-04T04:43:12;7.00;99.90
26503;DHT22;14177;51.520;6.764;2023-02-04T04:45:39;7.00;99.90
26503;DHT22;14177;51.520;6.764;2023-02-04T04:48:06;6.90;99.90
26503;DHT22;14177;51.520;6.764;2023-02-04T04:50:33;6.90;99.90
26503;DHT22;14177;51.520;6.764;2023-02-04T04:53:00;6.90;99.90
26503;DHT22;14177;51.520;6.764;2023-02-04T04:55:27;6.90;99.90
26503;DHT22;14177;51.520;6.764;2023-02-04T04:57:54;6.90;99.90
26503;DHT22;14177;51.520;6.764;2023-02-04T05:00:22;6.90;99.90
26503;DHT22;14177;51.520;6.764;2023-02-04T05:02:49;6.90;99.90
26503;DHT22;14177;51.520;6.764;2023-02-04T05:05:16;6.90;99.90
26503;DHT22;14177;51.520;6.764;2023-02-04T05:07:43;6.90;99.90
26503;DHT22;14177;51.520;6.764;2023-02-04T05:10:10;6.90;99.90
26503;DHT22;14177;51.520;6.764;2023-02-04T05:12:37;6.90;99.90
26503;DHT22;14177;51.520;6.764;2023-02-04T05:15:04;6.80;99.90
26503;DHT22;14177;51.520;6.764;2023-02-04T05:17:31;6.80;99.90
26503;DHT22;14177;51.520;6.764;2023-02-04T05:19:59;6.80;99.90
26503;DHT22;14177;51.520;6.764;2023-02-04T05:22:26;6.80;99.90
26503;DHT22;14177;51.520;6.764;2023-02-04T05:24:52;6.80;99.90
26503;DHT22;14177;51.520;6.764;2023-02-04T05:27:19;6.80;99.90
26503;DHT22;14177;51.520;6.764;2023-02-04T05:29:46;6.80;99.90
26503;DHT22;14177;51.520;6.764;2023-02-04T05:32:14;6.80;99.90
26503;DHT22;14177;51.520;6.764;2023-02-04T05:34:41;6.80;99.90
26503;DHT22;14177;51.520;6.764;2023-02-04T05:37:08;6.70;99.90
26503;DHT22;14177;51.520;6.764;2023-02-04T05:39:35;6.70;99.90
26503;DHT22;14177;51.520;6.764;2023-02-04T05:42:02;6.70;99.90
26503;DHT22;14177;51.520;6.764;2023-02-04T05:44:29;6.70;99.90
26503;DHT22;14177;51.520;6.764;2023-02-04T05:46:56;6.80;99.90
26503;DHT22;14177;51.520;6.764;2023-02-04T05:49:23;6.70;99.90
26503;DHT22;14177;51.520;6.764;2023-02-04T05:51:50;6.70;99.90
26503;DHT22;14177;51.520;6.764;2023-02-04T05:54:17;6.70;99.90
26503;DHT22;14177;51.520;6.764;2023-02-04T05:56:46;6.70;99.90
26503;DHT22;14177;51.520;6.764;2023-02-04T05:59:13;6.70;99.90
26503;DHT22;14177;51.520;6.764;2023-02-04T06:01:40;6.70;99.90
26503;DHT22;14177;51.520;6.764;2023-02-04T06:04:07;6.70;99.90
26503;DHT22;14177;51.520;6.764;2023-02-04T06:06:34;6.70;99.90
26503;DHT22;14177;51.520;6.764;2023-02-04T06:09:02;6.70;99.90
26503;DHT22;14177;51.520;6.764;2023-02-04T06:11:29;6.70;99.90
26503;DHT22;14177;51.520;6.764;2023-02-04T06:13:56;6.70;99.90
26503;DHT22;14177;51.520;6.764;2023-02-04T06:16:23;6.70;99.90
26503;DHT22;14177;51.520;6.764;2023-02-04T06:18:51;6.70;99.90
26503;DHT22;14177;51.520;6.764;2023-02-04T06:21:18;6.70;99.90
26503;DHT22;14177;51.520;6.764;2023-02-04T06:23:45;6.70;99.90
26503;DHT22;14177;51.520;6.764;2023-02-04T06:26:12;6.70;99.90
26503;DHT22;14177;51.520;6.764;2023-02-04T06:28:39;6.60;99.90
26503;DHT22;14177;51.520;6.764;2023-02-04T06:31:06;6.70;99.90
26503;DHT22;14177;51.520;6.764;2023-02-04T06:33:35;6.60;99.90
26503;DHT22;14177;51.520;6.764;2023-02-04T06:36:03;6.60;99.90
26503;DHT22;14177;51.520;6.764;2023-02-04T06:38:30;6.60;99.90
26503;DHT22;14177;51.520;6.764;2023-02-04T06:40:57;6.60;99.90
26503;DHT22;14177;51.520;6.764;2023-02-04T06:43:24;6.60;99.90
26503;DHT22;14177;51.520;6.764;2023-02-04T06:45:53;6.60;99.90
26503;DHT22;14177;51.520;6.764;2023-02-04T06:48:20;6.60;99.90
26503;DHT22;14177;51.520;6.764;2023-02-04T06:50:47;6.60;99.90
26503;DHT22;14177;51.520;6.764;2023-02-04T06:53:14;6.60;99.90
26503;DHT22;14177;51.520;6.764;2023-02-04T06:55:41;6.60;99.90
26503;DHT22;14177;51.520;6.764;2023-02-04T06:58:08;6.60;99.90
26503;DHT22;14177;51.520;6.764;2023-02-04T07:00:35;6.60;99.90
26503;DHT22;14177;51.520;6.764;2023-02-04T07:03:03;6.60;99.90
26503;DHT22;14177;51.520;6.764;2023-02-04T07:05:33;6.60;99.90
26503;DHT22;14177;51.520;6.764;2023-02-04T07:08:00;6.60;99.90
26503;DHT22;14177;51.520;6.764;2023-02-04T07:10:27;6.60;99.90
26503;DHT22;14177;51.520;6.764;2023-02-04T07:12:55;6.50;99.90
26503;DHT22;14177;51.520;6.764;2023-02-04T07:15:22;6.50;99.90
26503;DHT22;14177;51.520;6.764;2023-02-04T07:17:49;6.50;99.90
26503;DHT22;14177;51.520;6.764;2023-02-04T07:20:16;6.50;99.90
26503;DHT22;14177;51.520;6.764;2023-02-04T07:22:43;6.50;99.90
26503;DHT22;14177;51.520;6.764;2023-02-04T07:25:10;6.50;99.90
26503;DHT22;14177;51.520;6.764;2023-02-04T07:27:40;6.50;99.90
26503;DHT22;14177;51.520;6.764;2023-02-04T07:30:08;6.50;99.90
26503;DHT22;14177;51.520;6.764;2023-02-04T07:32:36;6.50;99.90
26503;DHT22;14177;51.520;6.764;2023-02-04T07:35:03;6.50;99.90
26503;DHT22;14177;51.520;6.764;2023-02-04T07:37:30;6.50;99.90
26503;DHT22;14177;51.520;6.764;2023-02-04T07:39:57;6.40;99.90
26503;DHT22;14177;51.520;6.764;2023-02-04T07:42:24;6.50;99.90
26503;DHT22;14177;51.520;6.764;2023-02-04T07:44:58;6.50;99.90
26503;DHT22;14177;51.520;6.764;2023-02-04T07:47:25;6.50;99.90
26503;DHT22;14177;51.520;6.764;2023-02-04T07:49:52;6.50;99.90
26503;DHT22;14177;51.520;6.764;2023-02-04T07:52:23;6.50;99.90
26503;DHT22;14177;51.520;6.764;2023-02-04T07:54:50;6.50;99.90
26503;DHT22;14177;51.520;6.764;2023-02-04T07:57:20;6.60;99.90
26503;DHT22;14177;51.520;6.764;2023-02-04T07:59:47;6.60;99.90
26503;DHT22;14177;51.520;6.764;2023-02-04T08:02:14;6.60;99.90
26503;DHT22;14177;51.520;6.764;2023-02-04T08:04:41;6.70;99.90
26503;DHT22;14177;51.520;6.764;2023-02-04T08:07:08;6.70;99.90
26503;DHT22;14177;51.520;6.764;2023-02-04T08:09:36;6.70;99.90
26503;DHT22;14177;51.520;6.764;2023-02-04T08:12:04;6.80;99.90
26503;DHT22;14177;51.520;6.764;2023-02-04T08:14:31;6.80;99.90
26503;DHT22;14177;51.520;6.764;2023-02-04T08:16:58;6.90;99.90
26503;DHT22;14177;51.520;6.764;2023-02-04T08:19:51;6.90;99.90
26503;DHT22;14177;51.520;6.764;2023-02-04T08:22:18;6.90;99.90
26503;DHT22;14177;51.520;6.764;2023-02-04T08:24:45;6.90;99.90
26503;DHT22;14177;51.520;6.764;2023-02-04T08:27:13;6.90;99.90
26503;DHT22;14177;51.520;6.764;2023-02-04T08:29:40;6.90;99.90
26503;DHT22;14177;51.520;6.764;2023-02-04T08:32:07;6.90;99.90
26503;DHT22;14177;51.520;6.764;2023-02-04T08:34:36;6.90;99.90
26503;DHT22;14177;51.520;6.764;2023-02-04T08:37:03;6.90;99.90
26503;DHT22;14177;51.520;6.764;2023-02-04T08:39:30;7.00;99.90
26503;DHT22;14177;51.520;6.764;2023-02-04T08:41:58;7.00;99.90
26503;DHT22;14177;51.520;6.764;2023-02-04T08:44:25;7.00;99.90
26503;DHT22;14177;51.520;6.764;2023-02-04T08:46:52;7.10;99.90
26503;DHT22;14177;51.520;6.764;2023-02-04T08:49:20;7.10;99.90
26503;DHT22;14177;51.520;6.764;2023-02-04T08:51:47;7.10;99.90
26503;DHT22;14177;51.520;6.764;2023-02-04T08:54:14;7.10;99.90
26503;DHT22;14177;51.520;6.764;2023-02-04T08:56:41;7.10;99.90
26503;DHT22;14177;51.520;6.764;2023-02-04T08:59:09;7.20;99.90
26503;DHT22;14177;51.520;6.764;2023-02-04T09:01:39;7.20;99.90
26503;DHT22;14177;51.520;6.764;2023-02-04T09:04:07;7.20;99.90
26503;DHT22;14177;51.520;6.764;2023-02-04T09:06:35;7.30;99.90
26503;DHT22;14177;51.520;6.764;2023-02-04T09:09:04;7.30;99.90
26503;DHT22;14177;51.520;6.764;2023-02-04T09:11:36;7.40;99.90
26503;DHT22;14177;51.520;6.764;2023-02-04T09:14:20;7.50;99.90
26503;DHT22;14177;51.520;6.764;2023-02-04T09:17:14;7.50;99.90
26503;DHT22;14177;51.520;6.764;2023-02-04T09:19:41;7.60;99.90
26503;DHT22;14177;51.520;6.764;2023-02-04T09:22:09;7.60;99.90
26503;DHT22;14177;51.520;6.764;2023-02-04T09:24:39;7.70;99.90
26503;DHT22;14177;51.520;6.764;2023-02-04T09:27:09;7.70;99.90
26503;DHT22;14177;51.520;6.764;2023-02-04T09:29:40;7.80;99.90
26503;DHT22;14177;51.520;6.764;2023-02-04T09:32:09;7.80;99.90
26503;DHT22;14177;51.520;6.764;2023-02-04T09:34:38;7.90;99.90
26503;DHT22;14177;51.520;6.764;2023-02-04T09:37:06;7.90;99.90
26503;DHT22;14177;51.520;6.764;2023-02-04T09:39:33;7.90;99.90
26503;DHT22;14177;51.520;6.764;2023-02-04T09:42:02;7.90;99.90
26503;DHT22;14177;51.520;6.764;2023-02-04T09:44:30;8.00;99.90
26503;DHT22;14177;51.520;6.764;2023-02-04T09:46:59;8.10;99.90
26503;DHT22;14177;51.520;6.764;2023-02-04T09:49:27;8.10;99.90
26503;DHT22;14177;51.520;6.764;2023-02-04T09:51:54;8.10;99.90
26503;DHT22;14177;51.520;6.764;2023-02-04T09:54:23;8.30;99.90
26503;DHT22;14177;51.520;6.764;2023-02-04T09:56:52;8.30;99.90
26503;DHT22;14177;51.520;6.764;2023-02-04T09:59:27;8.40;99.90
26503;DHT22;14177;51.520;6.764;2023-02-04T10:02:06;8.60;99.90
26503;DHT22;14177;51.520;6.764;2023-02-04T10:04:55;8.70;99.90
26503;DHT22;14177;51.520;6.764;2023-02-04T10:07:25;8.80;99.90
26503;DHT22;14177;51.520;6.764;2023-02-04T10:09:59;8.90;99.90
26503;DHT22;14177;51.520;6.764;2023-02-04T10:12:33;9.00;99.90
26503;DHT22;14177;51.520;6.764;2023-02-04T10:15:15;9.00;99.90
26503;DHT22;14177;51.520;6.764;2023-02-04T10:17:57;9.00;99.90
26503;DHT22;14177;51.520;6.764;2023-02-04T10:20:37;9.10;99.90
26503;DHT22;14177;51.520;6.764;2023-02-04T10:23:13;9.20;99.90
26503;DHT22;14177;51.520;6.764;2023-02-04T10:25:56;9.20;99.90
26503;DHT22;14177;51.520;6.764;2023-02-04T10:28:37;9.20;99.90
26503;DHT22;14177;51.520;6.764;2023-02-04T10:31:34;9.10;99.90
26503;DHT22;14177;51.520;6.764;2023-02-04T10:34:23;9.20;99.90
26503;DHT22;14177;51.520;6.764;2023-02-04T10:37:30;9.20;99.90
26503;DHT22;14177;51.520;6.764;2023-02-04T10:40:03;9.30;99.90
26503;DHT22;14177;51.520;6.764;2023-02-04T10:42:50;9.40;99.90
26503;DHT22;14177;51.520;6.764;2023-02-04T10:45:28;9.40;99.90
26503;DHT22;14177;51.520;6.764;2023-02-04T10:48:05;9.40;99.90
26503;DHT22;14177;51.520;6.764;2023-02-04T10:50:54;9.50;99.90
26503;DHT22;14177;51.520;6.764;2023-02-04T10:53:29;9.60;99.90
26503;DHT22;14177;51.520;6.764;2023-02-04T10:56:20;9.70;99.90
26503;DHT22;14177;51.520;6.764;2023-02-04T10:58:54;9.80;99.90
26503;DHT22;14177;51.520;6.764;2023-02-04T11:01:28;9.80;99.90
26503;DHT22;14177;51.520;6.764;2023-02-04T11:03:57;9.80;99.90
26503;DHT22;14177;51.520;6.764;2023-02-04T11:06:26;9.80;99.90
26503;DHT22;14177;51.520;6.764;2023-02-04T11:08:58;9.80;99.90
26503;DHT22;14177;51.520;6.764;2023-02-04T11:11:32;9.70;99.90
26503;DHT22;14177;51.520;6.764;2023-02-04T11:14:04;9.70;99.90
26503;DHT22;14177;51.520;6.764;2023-02-04T11:16:47;9.70;99.90
26503;DHT22;14177;51.520;6.764;2023-02-04T11:19:36;9.70;99.90
26503;DHT22;14177;51.520;6.764;2023-02-04T11:22:39;9.80;99.90
26503;DHT22;14177;51.520;6.764;2023-02-04T11:25:32;9.90;99.90
26503;DHT22;14177;51.520;6.764;2023-02-04T11:33:48;10.10;99.90
26503;DHT22;14177;51.520;6.764;2023-02-04T11:36:20;10.30;99.90
26503;DHT22;14177;51.520;6.764;2023-02-04T11:38:49;10.30;99.90
26503;DHT22;14177;51.520;6.764;2023-02-04T11:41:26;10.40;99.90
26503;DHT22;14177;51.520;6.764;2023-02-04T11:43:57;10.40;99.90
26503;DHT22;14177;51.520;6.764;2023-02-04T11:46:27;10.40;99.90
26503;DHT22;14177;51.520;6.764;2023-02-04T11:48:57;10.40;99.90
26503;DHT22;14177;51.520;6.764;2023-02-04T11:51:31;10.40;99.90
26503;DHT22;14177;51.520;6.764;2023-02-04T11:54:01;10.30;99.90
26503;DHT22;14177;51.520;6.764;2023-02-04T11:56:30;10.30;99.90
26503;DHT22;14177;51.520;6.764;2023-02-04T11:59:03;10.30;99.90
26503;DHT22;14177;51.520;6.764;2023-02-04T12:01:37;10.30;99.90
26503;DHT22;14177;51.520;6.764;2023-02-04T12:04:30;10.30;99.90
26503;DHT22;14177;51.520;6.764;2023-02-04T12:07:03;10.30;99.90
26503;DHT22;14177;51.520;6.764;2023-02-04T12:09:46;10.20;99.90
26503;DHT22;14177;51.520;6.764;2023-02-04T12:12:23;10.20;99.90
26503;DHT22;14177;51.520;6.764;2023-02-04T12:15:02;10.30;99.90
26503;DHT22;14177;51.520;6.764;2023-02-04T12:17:39;10.40;99.90
26503;DHT22;14177;51.520;6.764;2023-02-04T12:20:06;10.50;99.90
26503;DHT22;14177;51.520;6.764;2023-02-04T12:22:33;10.60;99.90
26503;DHT22;14177;51.520;6.764;2023-02-04T12:25:01;10.60;99.90
26503;DHT22;14177;51.520;6.764;2023-02-04T12:27:28;10.70;99.90
26503;DHT22;14177;51.520;6.764;2023-02-04T12:29:55;10.70;99.90
26503;DHT22;14177;51.520;6.764;2023-02-04T12:32:38;10.70;99.90
26503;DHT22;14177;51.520;6.764;2023-02-04T12:35:05;10.80;99.90
26503;DHT22;14177;51.520;6.764;2023-02-04T12:37:32;10.70;99.90
26503;DHT22;14177;51.520;6.764;2023-02-04T12:39:59;10.70;99.90
26503;DHT22;14177;51.520;6.764;2023-02-04T12:42:26;10.80;99.90
26503;DHT22;14177;51.520;6.764;2023-02-04T12:44:53;10.80;99.90
26503;DHT22;14177;51.520;6.764;2023-02-04T12:47:20;10.80;99.90
26503;DHT22;14177;51.520;6.764;2023-02-04T12:49:47;10.80;99.90
26503;DHT22;14177;51.520;6.764;2023-02-04T12:52:14;10.80;99.90
26503;DHT22;14177;51.520;6.764;2023-02-04T12:54:41;10.80;99.90
26503;DHT22;14177;51.520;6.764;2023-02-04T12:57:09;10.90;99.90
26503;DHT22;14177;51.520;6.764;2023-02-04T12:59:37;11.00;99.90
26503;DHT22;14177;51.520;6.764;2023-02-04T13:02:04;11.30;99.90
26503;DHT22;14177;51.520;6.764;2023-02-04T13:04:31;11.90;99.90
26503;DHT22;14177;51.520;6.764;2023-02-04T13:06:58;12.30;99.90
26503;DHT22;14177;51.520;6.764;2023-02-04T13:09:24;12.70;99.90
26503;DHT22;14177;51.520;6.764;2023-02-04T13:11:51;13.10;99.90
26503;DHT22;14177;51.520;6.764;2023-02-04T13:14:18;13.10;99.90
26503;DHT22;14177;51.520;6.764;2023-02-04T13:16:45;13.10;99.90
26503;DHT22;14177;51.520;6.764;2023-02-04T13:19:12;12.90;99.90
26503;DHT22;14177;51.520;6.764;2023-02-04T13:21:39;12.60;99.90
26503;DHT22;14177;51.520;6.764;2023-02-04T13:24:06;12.40;99.90
26503;DHT22;14177;51.520;6.764;2023-02-04T13:26:33;12.00;99.90
26503;DHT22;14177;51.520;6.764;2023-02-04T13:29:01;11.70;99.90
26503;DHT22;14177;51.520;6.764;2023-02-04T13:31:28;11.30;99.90
26503;DHT22;14177;51.520;6.764;2023-02-04T13:33:55;11.10;99.90
26503;DHT22;14177;51.520;6.764;2023-02-04T13:36:22;11.00;99.90
26503;DHT22;14177;51.520;6.764;2023-02-04T13:38:52;10.90;99.90
26503;DHT22;14177;51.520;6.764;2023-02-04T13:41:19;10.80;99.90
26503;DHT22;14177;51.520;6.764;2023-02-04T13:43:46;10.90;99.90
26503;DHT22;14177;51.520;6.764;2023-02-04T13:46:13;11.10;99.90
26503;DHT22;14177;51.520;6.764;2023-02-04T13:48:40;11.50;99.90
26503;DHT22;14177;51.520;6.764;2023-02-04T13:51:07;11.70;99.90
26503;DHT22;14177;51.520;6.764;2023-02-04T13:53:34;11.90;99.90
26503;DHT22;14177;51.520;6.764;2023-02-04T13:56:01;12.20;99.90
26503;DHT22;14177;51.520;6.764;2023-02-04T13:58:28;12.30;99.90
26503;DHT22;14177;51.520;6.764;2023-02-04T14:00:55;12.40;99.90
26503;DHT22;14177;51.520;6.764;2023-02-04T14:03:24;12.70;99.90
26503;DHT22;14177;51.520;6.764;2023-02-04T14:05:52;12.80;99.90
26503;DHT22;14177;51.520;6.764;2023-02-04T14:08:21;12.60;99.90
26503;DHT22;14177;51.520;6.764;2023-02-04T14:10:49;12.30;99.90
26503;DHT22;14177;51.520;6.764;2023-02-04T14:13:16;12.10;99.90
26503;DHT22;14177;51.520;6.764;2023-02-04T14:15:42;11.90;99.90
26503;DHT22;14177;51.520;6.764;2023-02-04T14:18:10;11.80;99.90
26503;DHT22;14177;51.520;6.764;2023-02-04T14:20:37;11.70;99.90
26503;DHT22;14177;51.520;6.764;2023-02-04T14:23:05;11.50;99.90
26503;DHT22;14177;51.520;6.764;2023-02-04T14:25:32;11.30;99.90
26503;DHT22;14177;51.520;6.764;2023-02-04T14:27:59;11.20;99.90
26503;DHT22;14177;51.520;6.764;2023-02-04T14:30:28;11.10;99.90
26503;DHT22;14177;51.520;6.764;2023-02-04T14:32:56;11.10;99.90
26503;DHT22;14177;51.520;6.764;2023-02-04T14:35:24;11.20;99.90
26503;DHT22;14177;51.520;6.764;2023-02-04T14:37:52;11.30;99.90
26503;DHT22;14177;51.520;6.764;2023-02-04T14:40:19;11.60;99.90
26503;DHT22;14177;51.520;6.764;2023-02-04T14:42:46;12.00;99.90
26503;DHT22;14177;51.520;6.764;2023-02-04T14:45:14;12.80;99.90
26503;DHT22;14177;51.520;6.764;2023-02-04T14:47:41;13.70;99.90
26503;DHT22;14177;51.520;6.764;2023-02-04T14:50:13;14.60;99.40
26503;DHT22;14177;51.520;6.764;2023-02-04T14:52:55;15.20;94.10
26503;DHT22;14177;51.520;6.764;2023-02-04T14:55:26;15.10;90.70
26503;DHT22;14177;51.520;6.764;2023-02-04T14:57:53;14.80;93.90
26503;DHT22;14177;51.520;6.764;2023-02-04T15:00:20;15.00;94.30
26503;DHT22;14177;51.520;6.764;2023-02-04T15:02:47;15.60;93.20
26503;DHT22;14177;51.520;6.764;2023-02-04T15:05:15;16.10;89.60
26503;DHT22;14177;51.520;6.764;2023-02-04T15:07:42;16.20;85.10
26503;DHT22;14177;51.520;6.764;2023-02-04T15:10:10;16.20;79.60
26503;DHT22;14177;51.520;6.764;2023-02-04T15:12:40;16.10;85.30
26503;DHT22;14177;51.520;6.764;2023-02-04T15:15:08;16.20;81.60
26503;DHT22;14177;51.520;6.764;2023-02-04T15:17:36;15.90;78.80
26503;DHT22;14177;51.520;6.764;2023-02-04T15:20:03;15.20;80.90
26503;DHT22;14177;51.520;6.764;2023-02-04T15:22:31;14.50;89.50
26503;DHT22;14177;51.520;6.764;2023-02-04T15:24:57;13.90;91.20
26503;DHT22;14177;51.520;6.764;2023-02-04T15:27:24;13.40;95.60
26503;DHT22;14177;51.520;6.764;2023-02-04T15:29:52;13.00;96.70
26503;DHT22;14177;51.520;6.764;2023-02-04T15:32:21;12.90;97.50
26503;DHT22;14177;51.520;6.764;2023-02-04T15:34:48;12.70;98.60
26503;DHT22;14177;51.520;6.764;2023-02-04T15:37:15;12.50;99.30
26503;DHT22;14177;51.520;6.764;2023-02-04T15:39:42;12.50;99.80
26503;DHT22;14177;51.520;6.764;2023-02-04T15:42:09;12.50;99.90
26503;DHT22;14177;51.520;6.764;2023-02-04T15:44:37;12.60;99.50
26503;DHT22;14177;51.520;6.764;2023-02-04T15:47:04;12.30;99.20
26503;DHT22;14177;51.520;6.764;2023-02-04T15:49:32;12.00;99.70
26503;DHT22;14177;51.520;6.764;2023-02-04T15:52:00;11.70;99.90
26503;DHT22;14177;51.520;6.764;2023-02-04T15:54:28;11.40;99.90
26503;DHT22;14177;51.520;6.764;2023-02-04T15:56:55;11.20;99.90
26503;DHT22;14177;51.520;6.764;2023-02-04T15:59:22;11.00;99.90
26503;DHT22;14177;51.520;6.764;2023-02-04T16:01:49;10.80;99.90
26503;DHT22;14177;51.520;6.764;2023-02-04T16:04:17;10.60;99.90
26503;DHT22;14177;51.520;6.764;2023-02-04T16:06:46;10.50;99.90
26503;DHT22;14177;51.520;6.764;2023-02-04T16:09:24;10.30;99.90